createdAt,value
2022-08-17T00:01:24.146Z,100119.56
2022-08-17T00:06:57.362Z,100114.38
2022-08-17T00:12:42.620Z,100127.91
2022-08-17T00:19:06.162Z,100139.81
2022-08-17T00:24:04.846Z,100142.09
2022-08-17T00:29:34.086Z,100140.44
2022-08-17T00:35:05.840Z,100134.34
2022-08-17T00:40:40.059Z,100134.50
2022-08-17T00:46:15.719Z,100137.88
2022-08-17T00:51:48.926Z,100135.53
2022-08-17T00:57:22.715Z,100145.66
2022-08-17T01:02:52.138Z,100140.50
2022-08-17T01:08:24.728Z,100145.50
2022-08-17T01:13:55.359Z,100130.28
2022-08-17T01:19:26.999Z,100132.31
2022-08-17T01:25:01.796Z,100129.44
2022-08-17T01:30:57.420Z,100112.81
2022-08-17T01:36:19.938Z,100113.41
2022-08-17T01:41:52.981Z,100112.66
2022-08-17T01:47:21.783Z,100110.00
2022-08-17T01:52:52.530Z,100105.78
2022-08-17T01:58:22.832Z,100106.94
2022-08-17T02:03:54.541Z,100110.41
2022-08-17T02:09:29.776Z,100094.03
2022-08-17T02:15:00.200Z,100090.13
2022-08-17T02:20:41.230Z,100095.03
2022-08-17T02:26:25.572Z,100101.28
2022-08-17T02:31:58.614Z,100094.63
2022-08-17T02:37:28.304Z,100099.56
2022-08-17T02:42:56.782Z,100101.19
2022-08-17T02:48:30.787Z,100106.75
2022-08-17T02:54:38.814Z,100098.44
2022-08-17T02:59:49.751Z,100093.00
2022-08-17T03:05:22.109Z,100088.09
2022-08-17T03:10:51.236Z,100095.06
2022-08-17T03:16:19.610Z,100104.69
2022-08-17T03:21:55.198Z,100091.78
2022-08-17T03:27:23.815Z,100085.34
2022-08-17T03:32:54.724Z,100089.03
2022-08-17T03:38:25.192Z,100107.66
2022-08-17T03:43:54.733Z,100100.75
2022-08-17T03:49:40.618Z,100102.34
2022-08-17T03:55:32.932Z,100103.94
2022-08-17T04:01:05.114Z,100099.31
2022-08-17T04:06:33.983Z,100102.53
2022-08-17T04:12:04.915Z,100094.47
2022-08-17T04:17:33.850Z,100097.59
2022-08-17T04:23:03.301Z,100099.03
2022-08-17T04:28:34.301Z,100099.06
2022-08-17T04:34:02.888Z,100098.00
2022-08-17T04:39:33.848Z,100100.34
2022-08-17T04:45:05.368Z,100095.44
2022-08-17T04:50:34.833Z,100095.16
2022-08-17T04:56:03.932Z,100100.41
2022-08-17T05:01:35.411Z,100100.94
2022-08-17T05:07:04.733Z,100098.16
2022-08-17T05:12:33.679Z,100083.44
2022-08-17T05:18:04.741Z,100083.09
2022-08-17T05:23:41.886Z,100091.44
2022-08-17T05:29:11.713Z,100089.97
2022-08-17T05:34:42.702Z,100091.91
2022-08-17T05:40:11.934Z,100094.81
2022-08-17T05:45:54.468Z,100093.31
2022-08-17T05:51:42.403Z,100091.00
2022-08-17T05:57:33.985Z,100094.59
2022-08-17T06:03:13.333Z,100092.66
2022-08-17T06:08:51.729Z,100092.72
2022-08-17T06:14:30.677Z,100093.13
2022-08-17T06:20:03.298Z,100084.25
2022-08-17T06:25:36.103Z,100072.75
2022-08-17T06:31:07.416Z,100076.03
2022-08-17T06:36:43.614Z,100076.78
2022-08-17T06:42:58.832Z,100077.69
2022-08-17T06:48:13.943Z,100068.75
2022-08-17T06:53:45.557Z,100063.75
2022-08-17T06:59:17.600Z,100063.41
2022-08-17T07:04:48.323Z,100054.81
2022-08-17T07:10:17.414Z,100057.09
2022-08-17T07:15:46.513Z,100057.56
2022-08-17T07:21:26.563Z,100045.69
2022-08-17T07:27:04.332Z,100055.75
2022-08-17T07:32:35.984Z,100065.09
2022-08-17T07:38:24.857Z,100056.22
2022-08-17T07:43:54.686Z,100057.72
2022-08-17T07:49:25.601Z,100057.09
2022-08-17T07:54:56.212Z,100047.03
2022-08-17T08:00:31.384Z,100039.59
2022-08-17T08:06:02.320Z,100056.53
2022-08-17T08:11:33.584Z,100039.63
2022-08-17T08:17:03.566Z,100035.22
2022-08-17T08:22:38.848Z,100033.19
2022-08-17T08:28:15.108Z,100027.81
2022-08-17T08:33:49.748Z,100022.22
2022-08-17T08:39:22.531Z,100024.34
2022-08-17T08:44:59.473Z,100021.91
2022-08-17T08:50:40.431Z,100011.09
2022-08-17T08:56:12.998Z,100013.09
2022-08-17T09:01:49.283Z,100023.56
2022-08-17T09:07:24.511Z,100019.94
2022-08-17T09:12:59.242Z,100022.47
2022-08-17T09:19:02.720Z,100028.13
2022-08-17T09:24:24.953Z,99999.22
2022-08-17T09:29:57.886Z,100009.75
2022-08-17T09:35:32.954Z,100003.41
2022-08-17T09:41:10.645Z,100005.81
2022-08-17T09:46:42.244Z,100009.06
2022-08-17T09:52:17.844Z,100007.44
2022-08-17T09:57:52.388Z,100006.47
2022-08-17T10:03:28.337Z,100010.19
2022-08-17T10:09:07.374Z,100008.72
2022-08-17T10:14:43.760Z,100011.50
2022-08-17T10:20:16.653Z,100011.28
2022-08-17T10:26:05.409Z,100010.59
2022-08-17T10:31:39.811Z,100013.78
2022-08-17T10:37:16.319Z,100009.50
2022-08-17T10:42:48.976Z,100003.72
2022-08-17T10:48:28.841Z,100006.03
2022-08-17T10:54:01.843Z,100008.06
2022-08-17T10:59:52.196Z,100009.44
2022-08-17T11:05:23.818Z,99996.84
2022-08-17T11:10:59.591Z,99993.88
2022-08-17T11:16:37.701Z,99983.84
2022-08-17T11:22:22.995Z,99979.59
2022-08-17T11:27:53.813Z,99974.56
2022-08-17T11:33:41.101Z,99961.59
2022-08-17T11:39:22.326Z,99959.78
2022-08-17T11:44:54.447Z,99963.66
2022-08-17T11:50:45.515Z,99962.81
2022-08-17T11:56:32.666Z,99955.03
2022-08-17T12:02:03.036Z,99961.63
2022-08-17T12:07:33.287Z,99957.22
2022-08-17T12:13:06.956Z,99951.78
2022-08-17T12:18:38.463Z,99937.94
2022-08-17T12:24:13.708Z,99932.78
2022-08-17T12:29:45.439Z,99920.03
2022-08-17T12:35:20.525Z,99926.56
2022-08-17T12:40:54.916Z,99921.38
2022-08-17T12:46:28.407Z,99925.69
2022-08-17T12:52:03.358Z,99925.28
2022-08-17T12:57:33.654Z,99923.69
2022-08-17T13:03:06.086Z,99911.22
2022-08-17T13:08:36.156Z,99923.47
2022-08-17T13:14:10.013Z,99922.44
2022-08-17T13:19:49.273Z,99928.25
2022-08-17T13:25:17.924Z,99929.94
2022-08-17T13:30:47.785Z,99939.88
2022-08-17T13:36:28.446Z,99941.47
2022-08-17T13:41:57.958Z,99942.72
2022-08-17T13:47:26.696Z,99961.03
2022-08-17T13:52:58.513Z,99960.31
2022-08-17T13:58:28.874Z,99963.66
2022-08-17T14:03:58.033Z,99970.97
2022-08-17T14:09:33.588Z,99962.53
2022-08-17T14:15:05.735Z,99972.84
2022-08-17T14:20:35.246Z,99974.47
2022-08-17T14:26:05.319Z,99970.34
2022-08-17T14:31:37.437Z,99974.94
2022-08-17T14:37:06.623Z,99975.31
2022-08-17T14:42:37.930Z,99984.97
2022-08-17T14:48:07.965Z,99973.13
2022-08-17T14:53:37.790Z,99961.75
2022-08-17T14:59:07.823Z,99958.50
2022-08-17T15:04:36.633Z,99954.72
2022-08-17T15:10:05.769Z,99950.63
2022-08-17T15:15:35.763Z,99955.66
2022-08-17T15:21:04.982Z,99968.59
2022-08-17T15:26:33.853Z,99963.84
2022-08-17T15:32:04.006Z,99972.44
2022-08-17T15:37:33.478Z,99984.72
2022-08-17T15:43:05.144Z,99993.38
2022-08-17T15:48:42.621Z,100001.19
2022-08-17T15:54:17.251Z,99997.72
2022-08-17T15:59:54.004Z,99992.31
2022-08-17T16:05:31.150Z,99985.88
2022-08-17T16:11:00.670Z,99979.84
2022-08-17T16:16:31.260Z,99980.75
2022-08-17T16:22:00.975Z,99987.00
2022-08-17T16:27:29.523Z,100000.81
2022-08-17T16:32:59.356Z,100002.00
2022-08-17T16:38:30.113Z,100013.16
2022-08-17T16:44:10.367Z,100009.91
2022-08-17T16:49:45.193Z,99994.66
2022-08-17T16:55:15.860Z,100017.59
2022-08-17T17:00:45.304Z,100019.13
2022-08-17T17:06:18.635Z,100016.59
2022-08-17T17:11:52.224Z,100012.81
2022-08-17T17:17:24.818Z,100031.16
2022-08-17T17:23:00.492Z,100031.38
2022-08-17T17:28:33.930Z,100034.13
2022-08-17T17:34:05.959Z,100022.72
2022-08-17T17:39:43.855Z,100030.75
2022-08-17T17:45:18.257Z,100037.66
2022-08-17T17:50:50.471Z,100034.84
2022-08-17T17:56:44.100Z,100028.69
2022-08-17T18:02:42.059Z,100024.44
2022-08-17T18:08:16.494Z,100023.53
2022-08-17T18:13:55.361Z,100020.41
2022-08-17T18:19:27.065Z,100008.00
2022-08-17T18:24:57.370Z,100008.81
2022-08-17T18:30:28.910Z,100004.53
2022-08-17T18:35:59.746Z,100004.19
2022-08-17T18:41:35.936Z,100006.50
2022-08-17T18:47:09.086Z,100007.66
2022-08-17T18:52:39.022Z,100019.13
2022-08-17T18:58:15.215Z,100017.97
2022-08-17T19:03:44.696Z,100013.28
2022-08-17T19:09:32.340Z,100010.19
2022-08-17T19:15:01.796Z,100014.66
2022-08-17T19:20:31.632Z,100005.31
2022-08-17T19:26:05.809Z,100017.47
2022-08-17T19:31:55.334Z,100011.53
2022-08-17T19:37:32.424Z,100016.56
2022-08-17T19:43:05.625Z,100002.16
2022-08-17T19:48:40.827Z,100011.50
2022-08-17T19:54:14.230Z,100009.72
2022-08-17T19:59:49.527Z,100000.91
2022-08-17T20:05:20.728Z,100013.31
2022-08-17T20:10:54.707Z,100022.44
2022-08-17T20:16:24.805Z,100008.91
2022-08-17T20:21:55.041Z,100006.97
2022-08-17T20:27:31.482Z,100005.00
2022-08-17T20:33:03.412Z,100004.34
2022-08-17T20:38:43.655Z,100006.63
2022-08-17T20:44:12.337Z,100007.47
2022-08-17T20:49:50.536Z,100008.13
2022-08-17T20:55:51.638Z,100008.44
2022-08-17T21:01:36.633Z,100008.53
2022-08-17T21:07:25.644Z,100006.31
2022-08-17T21:12:57.880Z,100018.28
2022-08-17T21:18:31.254Z,100010.81
2022-08-17T21:24:08.728Z,100007.47
2022-08-17T21:29:52.855Z,99997.31
2022-08-17T21:35:30.112Z,100000.19
2022-08-17T21:40:59.649Z,99997.91
2022-08-17T21:46:30.212Z,99996.53
2022-08-17T21:51:58.620Z,100000.66
2022-08-17T21:57:30.345Z,100000.44
2022-08-17T22:03:00.849Z,99998.75
2022-08-17T22:08:29.240Z,99998.06
2022-08-17T22:14:05.343Z,99998.34
2022-08-17T22:19:35.022Z,100008.47
2022-08-17T22:25:05.593Z,99988.22
2022-08-17T22:30:37.584Z,99987.59
2022-08-17T22:36:10.291Z,99986.41
2022-08-17T22:41:41.858Z,99991.34
2022-08-17T22:47:29.376Z,99996.16
2022-08-17T22:53:17.713Z,100007.72
2022-08-17T22:59:09.487Z,99999.09
2022-08-17T23:04:41.480Z,100008.72
2022-08-17T23:10:10.399Z,100000.53
2022-08-17T23:15:40.086Z,100007.34
2022-08-17T23:21:09.815Z,100012.09
2022-08-17T23:26:42.182Z,99993.81
2022-08-17T23:32:12.329Z,100001.50
2022-08-17T23:37:42.587Z,100003.00
2022-08-17T23:43:24.604Z,100000.94
2022-08-17T23:48:55.148Z,100009.28
2022-08-17T23:54:28.286Z,100009.75
2022-08-17T23:59:57.257Z,100020.03
